sensor_id;sensor_type;location;lat;lon;timestamp;pressure;altitude;pressure_sealevel;temperature;humidity
82474;BME280;72350;53.232;6.556;2023-12-20T00:01:12;101092.69;;;7.73;87.77
82474;BME280;72350;53.232;6.556;2023-12-20T00:03:39;101083.22;;;7.67;87.89
82474;BME280;72350;53.232;6.556;2023-12-20T00:06:08;101087.00;;;7.66;88.55
82474;BME280;72350;53.232;6.556;2023-12-20T00:08:38;101074.53;;;7.72;88.04
82474;BME280;72350;53.232;6.556;2023-12-20T00:11:06;101081.28;;;7.59;87.80
82474;BME280;72350;53.232;6.556;2023-12-20T00:13:34;101080.16;;;7.70;88.54
82474;BME280;72350;53.232;6.556;2023-12-20T00:16:02;101076.25;;;7.55;87.83
82474;BME280;72350;53.232;6.556;2023-12-20T00:18:30;101081.97;;;7.61;88.25
82474;BME280;72350;53.232;6.556;2023-12-20T00:20:57;101073.50;;;7.73;91.09
82474;BME280;72350;53.232;6.556;2023-12-20T00:23:25;101069.38;;;7.69;89.92
82474;BME280;72350;53.232;6.556;2023-12-20T00:25:54;101078.38;;;7.61;89.01
82474;BME280;72350;53.232;6.556;2023-12-20T00:28:23;101076.97;;;7.57;88.53
82474;BME280;72350;53.232;6.556;2023-12-20T00:30:50;101073.50;;;7.55;90.49
82474;BME280;72350;53.232;6.556;2023-12-20T00:33:18;101071.41;;;7.49;90.58
82474;BME280;72350;53.232;6.556;2023-12-20T00:35:46;101071.25;;;7.50;89.40
82474;BME280;72350;53.232;6.556;2023-12-20T00:38:14;101064.75;;;7.51;88.82
82474;BME280;72350;53.232;6.556;2023-12-20T00:40:42;101071.25;;;7.50;89.02
82474;BME280;72350;53.232;6.556;2023-12-20T00:43:11;101070.63;;;7.56;91.45
82474;BME280;72350;53.232;6.556;2023-12-20T00:45:39;101077.13;;;7.55;89.41
82474;BME280;72350;53.232;6.556;2023-12-20T00:48:07;101082.63;;;7.55;88.66
82474;BME280;72350;53.232;6.556;2023-12-20T00:50:35;101084.06;;;7.50;88.36
82474;BME280;72350;53.232;6.556;2023-12-20T00:53:03;101072.25;;;7.49;88.40
82474;BME280;72350;53.232;6.556;2023-12-20T00:55:32;101070.94;;;7.53;88.24
82474;BME280;72350;53.232;6.556;2023-12-20T00:58:00;101063.72;;;7.52;87.72
82474;BME280;72350;53.232;6.556;2023-12-20T01:00:29;101059.25;;;7.51;86.93
82474;BME280;72350;53.232;6.556;2023-12-20T01:02:57;101043.53;;;7.53;88.10
82474;BME280;72350;53.232;6.556;2023-12-20T01:05:24;101041.19;;;7.40;86.97
82474;BME280;72350;53.232;6.556;2023-12-20T01:07:52;101040.72;;;7.45;87.50
82474;BME280;72350;53.232;6.556;2023-12-20T01:10:20;101038.75;;;7.37;86.57
82474;BME280;72350;53.232;6.556;2023-12-20T01:12:49;101042.44;;;7.46;88.65
82474;BME280;72350;53.232;6.556;2023-12-20T01:15:17;101037.81;;;7.47;88.24
82474;BME280;72350;53.232;6.556;2023-12-20T01:17:46;101034.47;;;7.53;88.64
82474;BME280;72350;53.232;6.556;2023-12-20T01:20:14;101034.53;;;7.43;86.22
82474;BME280;72350;53.232;6.556;2023-12-20T01:22:43;101027.22;;;7.34;87.03
82474;BME280;72350;53.232;6.556;2023-12-20T01:25:12;101020.81;;;7.43;88.98
82474;BME280;72350;53.232;6.556;2023-12-20T01:27:40;101016.53;;;7.40;88.95
82474;BME280;72350;53.232;6.556;2023-12-20T01:30:09;101021.69;;;7.43;87.95
82474;BME280;72350;53.232;6.556;2023-12-20T01:32:37;101025.28;;;7.44;88.01
82474;BME280;72350;53.232;6.556;2023-12-20T01:35:06;101030.69;;;7.36;88.46
82474;BME280;72350;53.232;6.556;2023-12-20T01:37:34;101027.56;;;7.49;89.49
82474;BME280;72350;53.232;6.556;2023-12-20T01:40:03;101035.47;;;7.52;88.39
82474;BME280;72350;53.232;6.556;2023-12-20T01:42:31;101032.00;;;7.50;88.66
82474;BME280;72350;53.232;6.556;2023-12-20T01:44:58;101029.25;;;7.50;88.57
82474;BME280;72350;53.232;6.556;2023-12-20T01:47:26;101031.94;;;7.59;88.59
82474;BME280;72350;53.232;6.556;2023-12-20T01:49:54;101019.50;;;7.47;88.04
82474;BME280;72350;53.232;6.556;2023-12-20T01:52:25;101016.78;;;7.47;88.33
82474;BME280;72350;53.232;6.556;2023-12-20T01:54:53;101026.53;;;7.50;89.34
82474;BME280;72350;53.232;6.556;2023-12-20T01:57:27;101018.53;;;7.56;89.31
82474;BME280;72350;53.232;6.556;2023-12-20T01:59:55;101023.72;;;7.59;89.25
82474;BME280;72350;53.232;6.556;2023-12-20T02:02:25;101026.53;;;7.50;88.69
82474;BME280;72350;53.232;6.556;2023-12-20T02:04:54;101019.25;;;7.58;90.53
82474;BME280;72350;53.232;6.556;2023-12-20T02:07:24;101005.63;;;7.49;89.35
82474;BME280;72350;53.232;6.556;2023-12-20T02:09:52;101005.56;;;7.58;89.75
82474;BME280;72350;53.232;6.556;2023-12-20T02:12:20;101005.16;;;7.53;88.46
82474;BME280;72350;53.232;6.556;2023-12-20T02:14:49;100999.13;;;7.50;88.09
82474;BME280;72350;53.232;6.556;2023-12-20T02:17:16;100992.41;;;7.44;87.70
82474;BME280;72350;53.232;6.556;2023-12-20T02:19:45;100994.59;;;7.40;88.24
82474;BME280;72350;53.232;6.556;2023-12-20T02:22:14;100993.09;;;7.46;88.48
82474;BME280;72350;53.232;6.556;2023-12-20T02:24:42;100993.97;;;7.47;87.71
82474;BME280;72350;53.232;6.556;2023-12-20T02:27:09;100989.44;;;7.37;88.28
82474;BME280;72350;53.232;6.556;2023-12-20T02:29:37;100998.38;;;7.39;88.77
82474;BME280;72350;53.232;6.556;2023-12-20T02:32:05;100986.84;;;7.36;88.09
82474;BME280;72350;53.232;6.556;2023-12-20T02:34:33;100978.81;;;7.34;88.38
82474;BME280;72350;53.232;6.556;2023-12-20T02:37:01;100973.00;;;7.37;88.06
82474;BME280;72350;53.232;6.556;2023-12-20T02:39:30;100981.94;;;7.21;88.53
82474;BME280;72350;53.232;6.556;2023-12-20T02:41:59;101002.09;;;7.20;90.24
82474;BME280;72350;53.232;6.556;2023-12-20T02:44:27;100975.34;;;7.32;92.93
82474;BME280;72350;53.232;6.556;2023-12-20T02:46:55;100975.75;;;7.37;91.81
82474;BME280;72350;53.232;6.556;2023-12-20T02:49:23;100970.88;;;7.31;89.89
82474;BME280;72350;53.232;6.556;2023-12-20T02:51:51;100963.03;;;7.36;91.19
82474;BME280;72350;53.232;6.556;2023-12-20T02:54:19;100965.16;;;7.25;90.30
82474;BME280;72350;53.232;6.556;2023-12-20T02:56:49;100975.09;;;7.26;89.74
82474;BME280;72350;53.232;6.556;2023-12-20T02:59:16;100963.03;;;7.36;90.88
82474;BME280;72350;53.232;6.556;2023-12-20T03:01:45;100965.88;;;7.27;89.52
82474;BME280;72350;53.232;6.556;2023-12-20T03:04:13;100962.75;;;7.39;90.38
82474;BME280;72350;53.232;6.556;2023-12-20T03:06:41;100956.88;;;7.34;90.02
82474;BME280;72350;53.232;6.556;2023-12-20T03:09:09;100946.38;;;7.30;90.02
82474;BME280;72350;53.232;6.556;2023-12-20T03:11:37;100940.44;;;7.34;89.61
82474;BME280;72350;53.232;6.556;2023-12-20T03:14:06;100946.59;;;7.36;89.89
82474;BME280;72350;53.232;6.556;2023-12-20T03:16:33;100933.69;;;7.29;91.00
82474;BME280;72350;53.232;6.556;2023-12-20T03:19:02;100939.09;;;7.20;90.51
82474;BME280;72350;53.232;6.556;2023-12-20T03:21:30;100944.44;;;7.22;91.42
82474;BME280;72350;53.232;6.556;2023-12-20T03:23:58;100959.22;;;7.29;91.89
82474;BME280;72350;53.232;6.556;2023-12-20T03:26:26;100945.03;;;7.34;93.64
82474;BME280;72350;53.232;6.556;2023-12-20T03:28:53;100949.28;;;7.28;93.36
82474;BME280;72350;53.232;6.556;2023-12-20T03:31:23;100937.00;;;7.32;94.10
82474;BME280;72350;53.232;6.556;2023-12-20T03:33:51;100945.13;;;7.42;94.61
82474;BME280;72350;53.232;6.556;2023-12-20T03:36:20;100945.53;;;7.47;95.03
82474;BME280;72350;53.232;6.556;2023-12-20T03:38:48;100940.66;;;7.41;93.91
82474;BME280;72350;53.232;6.556;2023-12-20T03:41:16;100931.13;;;7.45;92.75
82474;BME280;72350;53.232;6.556;2023-12-20T03:43:43;100923.69;;;7.37;92.32
82474;BME280;72350;53.232;6.556;2023-12-20T03:46:11;100925.72;;;7.35;92.90
82474;BME280;72350;53.232;6.556;2023-12-20T03:48:40;100923.28;;;7.32;91.76
82474;BME280;72350;53.232;6.556;2023-12-20T03:51:08;100916.25;;;7.30;92.63
82474;BME280;72350;53.232;6.556;2023-12-20T03:53:36;100920.09;;;7.37;92.93
82474;BME280;72350;53.232;6.556;2023-12-20T03:56:05;100910.84;;;7.38;92.67
82474;BME280;72350;53.232;6.556;2023-12-20T03:58:33;100910.84;;;7.38;92.92
82474;BME280;72350;53.232;6.556;2023-12-20T04:01:00;100904.97;;;7.33;91.89
82474;BME280;72350;53.232;6.556;2023-12-20T04:03:29;100906.84;;;7.32;91.59
82474;BME280;72350;53.232;6.556;2023-12-20T04:05:58;100905.81;;;7.33;91.16
82474;BME280;72350;53.232;6.556;2023-12-20T04:08:26;100909.81;;;7.39;92.00
82474;BME280;72350;53.232;6.556;2023-12-20T04:10:53;100900.53;;;7.32;91.33
82474;BME280;72350;53.232;6.556;2023-12-20T04:13:21;100899.88;;;7.38;92.01
82474;BME280;72350;53.232;6.556;2023-12-20T04:15:49;100900.66;;;7.30;90.86
82474;BME280;72350;53.232;6.556;2023-12-20T04:18:18;100899.25;;;7.26;92.07
82474;BME280;72350;53.232;6.556;2023-12-20T04:20:46;100895.19;;;7.30;92.18
82474;BME280;72350;53.232;6.556;2023-12-20T04:23:15;100885.56;;;7.26;91.17
82474;BME280;72350;53.232;6.556;2023-12-20T04:25:42;100883.69;;;7.27;91.70
82474;BME280;72350;53.232;6.556;2023-12-20T04:28:10;100890.41;;;7.32;90.90
82474;BME280;72350;53.232;6.556;2023-12-20T04:30:38;100889.84;;;7.29;90.62
82474;BME280;72350;53.232;6.556;2023-12-20T04:33:06;100889.25;;;7.35;90.93
82474;BME280;72350;53.232;6.556;2023-12-20T04:35:34;100887.50;;;7.34;91.09
82474;BME280;72350;53.232;6.556;2023-12-20T04:38:02;100879.00;;;7.37;91.58
82474;BME280;72350;53.232;6.556;2023-12-20T04:40:31;100879.00;;;7.37;90.91
82474;BME280;72350;53.232;6.556;2023-12-20T04:42:59;100876.25;;;7.37;90.79
82474;BME280;72350;53.232;6.556;2023-12-20T04:45:27;100877.09;;;7.37;90.38
82474;BME280;72350;53.232;6.556;2023-12-20T04:47:55;100879.94;;;7.54;91.26
82474;BME280;72350;53.232;6.556;2023-12-20T04:50:23;100881.38;;;7.58;90.38
82474;BME280;72350;53.232;6.556;2023-12-20T04:52:51;100877.22;;;7.54;90.09
82474;BME280;72350;53.232;6.556;2023-12-20T04:55:18;100890.59;;;7.57;90.12
82474;BME280;72350;53.232;6.556;2023-12-20T04:57:48;100881.38;;;7.58;90.08
82474;BME280;72350;53.232;6.556;2023-12-20T05:00:16;100879.16;;;7.61;89.50
82474;BME280;72350;53.232;6.556;2023-12-20T05:02:44;100878.56;;;7.76;90.91
82474;BME280;72350;53.232;6.556;2023-12-20T05:05:12;100882.78;;;7.70;89.41
82474;BME280;72350;53.232;6.556;2023-12-20T05:07:41;100882.50;;;7.73;90.21
82474;BME280;72350;53.232;6.556;2023-12-20T05:10:10;100885.25;;;7.73;90.06
82474;BME280;72350;53.232;6.556;2023-12-20T05:12:38;100888.41;;;7.86;91.53
82474;BME280;72350;53.232;6.556;2023-12-20T05:15:08;100895.53;;;7.79;89.94
82474;BME280;72350;53.232;6.556;2023-12-20T05:17:35;100877.25;;;7.88;90.62
82474;BME280;72350;53.232;6.556;2023-12-20T05:20:05;100876.63;;;7.94;91.10
82474;BME280;72350;53.232;6.556;2023-12-20T05:22:33;100881.91;;;7.96;92.18
82474;BME280;72350;53.232;6.556;2023-12-20T05:25:00;100876.44;;;7.96;93.19
82474;BME280;72350;53.232;6.556;2023-12-20T05:27:28;100878.00;;;7.98;94.09
82474;BME280;72350;53.232;6.556;2023-12-20T05:29:56;100878.31;;;7.95;94.42
82474;BME280;72350;53.232;6.556;2023-12-20T05:32:25;100874.53;;;7.96;94.71
82474;BME280;72350;53.232;6.556;2023-12-20T05:34:53;100876.81;;;8.01;94.15
82474;BME280;72350;53.232;6.556;2023-12-20T05:37:21;100876.56;;;7.86;93.55
82474;BME280;72350;53.232;6.556;2023-12-20T05:39:49;100864.66;;;8.03;96.22
82474;BME280;72350;53.232;6.556;2023-12-20T05:42:17;100864.47;;;7.97;93.88
82474;BME280;72350;53.232;6.556;2023-12-20T05:44:45;100856.00;;;7.90;93.68
82474;BME280;72350;53.232;6.556;2023-12-20T05:47:14;100834.44;;;7.95;93.89
82474;BME280;72350;53.232;6.556;2023-12-20T05:49:43;100844.97;;;8.16;94.84
82474;BME280;72350;53.232;6.556;2023-12-20T05:52:11;100852.69;;;8.13;92.59
82474;BME280;72350;53.232;6.556;2023-12-20T05:54:39;100853.41;;;8.15;93.07
82474;BME280;72350;53.232;6.556;2023-12-20T05:57:07;100847.75;;;8.24;93.23
82474;BME280;72350;53.232;6.556;2023-12-20T05:59:35;100847.34;;;8.45;95.00
82474;BME280;72350;53.232;6.556;2023-12-20T06:02:03;100857.03;;;8.31;91.59
82474;BME280;72350;53.232;6.556;2023-12-20T06:04:31;100849.06;;;8.46;94.48
82474;BME280;72350;53.232;6.556;2023-12-20T06:07:01;100848.81;;;8.31;90.98
82474;BME280;72350;53.232;6.556;2023-12-20T06:09:28;100845.88;;;8.25;90.64
82474;BME280;72350;53.232;6.556;2023-12-20T06:11:57;100839.00;;;8.21;90.20
82474;BME280;72350;53.232;6.556;2023-12-20T06:14:25;100837.50;;;8.35;92.73
82474;BME280;72350;53.232;6.556;2023-12-20T06:16:53;100825.59;;;8.60;94.71
82474;BME280;72350;53.232;6.556;2023-12-20T06:19:21;100833.69;;;8.70;92.58
82474;BME280;72350;53.232;6.556;2023-12-20T06:21:49;100825.78;;;8.59;91.05
82474;BME280;72350;53.232;6.556;2023-12-20T06:24:18;100830.22;;;8.51;89.84
82474;BME280;72350;53.232;6.556;2023-12-20T06:26:46;100829.38;;;8.51;90.04
82474;BME280;72350;53.232;6.556;2023-12-20T06:29:14;100822.44;;;8.39;90.57
82474;BME280;72350;53.232;6.556;2023-12-20T06:31:42;100820.59;;;8.56;92.19
82474;BME280;72350;53.232;6.556;2023-12-20T06:34:10;100817.19;;;8.53;91.84
82474;BME280;72350;53.232;6.556;2023-12-20T06:36:38;100827.13;;;8.46;91.11
82474;BME280;72350;53.232;6.556;2023-12-20T06:39:05;100811.84;;;8.52;91.02
82474;BME280;72350;53.232;6.556;2023-12-20T06:41:34;100807.25;;;8.77;94.25
82474;BME280;72350;53.232;6.556;2023-12-20T06:44:02;100812.00;;;8.50;88.89
82474;BME280;72350;53.232;6.556;2023-12-20T06:46:30;100800.53;;;8.71;92.17
82474;BME280;72350;53.232;6.556;2023-12-20T06:48:58;100796.78;;;8.81;92.81
82474;BME280;72350;53.232;6.556;2023-12-20T06:51:26;100804.13;;;8.64;91.02
82474;BME280;72350;53.232;6.556;2023-12-20T06:53:54;100798.31;;;8.59;90.99
82474;BME280;72350;53.232;6.556;2023-12-20T06:56:22;100799.69;;;8.79;93.22
82474;BME280;72350;53.232;6.556;2023-12-20T06:58:51;100784.59;;;8.83;90.58
82474;BME280;72350;53.232;6.556;2023-12-20T07:01:19;100799.72;;;8.87;91.74
82474;BME280;72350;53.232;6.556;2023-12-20T07:03:47;100801.06;;;9.00;92.51
82474;BME280;72350;53.232;6.556;2023-12-20T07:06:15;100798.31;;;9.08;91.29
82474;BME280;72350;53.232;6.556;2023-12-20T07:08:43;100785.63;;;8.90;88.06
82474;BME280;72350;53.232;6.556;2023-12-20T07:11:12;100783.75;;;8.83;87.84
82474;BME280;72350;53.232;6.556;2023-12-20T07:13:39;100786.00;;;8.87;88.29
82474;BME280;72350;53.232;6.556;2023-12-20T07:16:09;100778.06;;;9.17;91.87
82474;BME280;72350;53.232;6.556;2023-12-20T07:18:37;100780.50;;;8.95;87.51
82474;BME280;72350;53.232;6.556;2023-12-20T07:21:05;100778.25;;;8.91;87.71
82474;BME280;72350;53.232;6.556;2023-12-20T07:23:34;100776.00;;;8.94;89.89
82474;BME280;72350;53.232;6.556;2023-12-20T07:26:02;100774.66;;;8.90;87.03
82474;BME280;72350;53.232;6.556;2023-12-20T07:28:30;100792.00;;;8.91;86.54
82474;BME280;72350;53.232;6.556;2023-12-20T07:30:58;100788.75;;;8.87;85.72
82474;BME280;72350;53.232;6.556;2023-12-20T07:33:27;100778.41;;;8.89;87.20
82474;BME280;72350;53.232;6.556;2023-12-20T07:36:04;100778.75;;;9.03;86.75
82474;BME280;72350;53.232;6.556;2023-12-20T07:38:32;100785.09;;;8.87;86.70
82474;BME280;72350;53.232;6.556;2023-12-20T07:40:59;100789.72;;;9.03;87.04
82474;BME280;72350;53.232;6.556;2023-12-20T07:43:27;100788.19;;;8.92;85.23
82474;BME280;72350;53.232;6.556;2023-12-20T07:45:55;100789.09;;;8.92;86.25
82474;BME280;72350;53.232;6.556;2023-12-20T07:48:23;100781.34;;;9.04;87.46
82474;BME280;72350;53.232;6.556;2023-12-20T07:50:52;100791.28;;;9.05;85.77
82474;BME280;72350;53.232;6.556;2023-12-20T07:53:20;100779.44;;;9.05;87.76
82474;BME280;72350;53.232;6.556;2023-12-20T07:55:48;100784.59;;;9.00;88.34
82474;BME280;72350;53.232;6.556;2023-12-20T07:58:15;100789.59;;;8.80;85.87
82474;BME280;72350;53.232;6.556;2023-12-20T08:00:43;100789.06;;;8.60;85.47
82474;BME280;72350;53.232;6.556;2023-12-20T08:03:11;100787.50;;;8.73;88.11
82474;BME280;72350;53.232;6.556;2023-12-20T08:05:40;100800.56;;;8.80;86.39
82474;BME280;72350;53.232;6.556;2023-12-20T08:08:09;100787.50;;;8.73;85.39
82474;BME280;72350;53.232;6.556;2023-12-20T08:10:37;100795.25;;;8.78;86.20
82474;BME280;72350;53.232;6.556;2023-12-20T08:13:05;100793.88;;;8.82;86.41
82474;BME280;72350;53.232;6.556;2023-12-20T08:15:33;100794.38;;;8.78;86.53
82474;BME280;72350;53.232;6.556;2023-12-20T08:18:01;100794.03;;;8.81;87.53
82474;BME280;72350;53.232;6.556;2023-12-20T08:20:29;100802.97;;;8.83;87.44
82474;BME280;72350;53.232;6.556;2023-12-20T08:23:06;100800.38;;;8.73;86.41
82474;BME280;72350;53.232;6.556;2023-12-20T08:25:35;100794.22;;;8.87;88.57
82474;BME280;72350;53.232;6.556;2023-12-20T08:28:04;100789.59;;;8.80;87.30
82474;BME280;72350;53.232;6.556;2023-12-20T08:30:32;100795.22;;;8.94;87.46
82474;BME280;72350;53.232;6.556;2023-12-20T08:33:00;100806.91;;;8.88;85.47
82474;BME280;72350;53.232;6.556;2023-12-20T08:35:29;100827.69;;;8.83;84.03
82474;BME280;72350;53.232;6.556;2023-12-20T08:37:57;100836.25;;;8.71;85.07
82474;BME280;72350;53.232;6.556;2023-12-20T08:40:25;100835.59;;;8.27;83.36
82474;BME280;72350;53.232;6.556;2023-12-20T08:42:54;100857.25;;;7.96;84.06
82474;BME280;72350;53.232;6.556;2023-12-20T08:45:22;100865.25;;;7.81;85.27
82474;BME280;72350;53.232;6.556;2023-12-20T08:47:50;100872.47;;;7.38;85.27
82474;BME280;72350;53.232;6.556;2023-12-20T08:50:18;100878.34;;;7.43;90.47
82474;BME280;72350;53.232;6.556;2023-12-20T08:52:46;100857.22;;;7.61;91.80
82474;BME280;72350;53.232;6.556;2023-12-20T08:55:15;100867.38;;;7.43;90.50
82474;BME280;72350;53.232;6.556;2023-12-20T08:57:44;100864.78;;;7.41;91.86
82474;BME280;72350;53.232;6.556;2023-12-20T09:00:15;100874.91;;;7.23;91.40
82474;BME280;72350;53.232;6.556;2023-12-20T09:02:42;100873.28;;;7.12;91.92
82474;BME280;72350;53.232;6.556;2023-12-20T09:05:10;100892.19;;;7.41;96.26
82474;BME280;72350;53.232;6.556;2023-12-20T09:07:38;100909.03;;;7.29;94.64
82474;BME280;72350;53.232;6.556;2023-12-20T09:10:07;100908.50;;;7.25;94.83
82474;BME280;72350;53.232;6.556;2023-12-20T09:12:35;100904.06;;;7.24;94.75
82474;BME280;72350;53.232;6.556;2023-12-20T09:15:06;100901.78;;;7.19;94.13
82474;BME280;72350;53.232;6.556;2023-12-20T09:17:35;100908.50;;;7.25;94.66
82474;BME280;72350;53.232;6.556;2023-12-20T09:20:04;100899.25;;;7.26;94.19
82474;BME280;72350;53.232;6.556;2023-12-20T09:22:34;100901.84;;;7.28;93.20
82474;BME280;72350;53.232;6.556;2023-12-20T09:25:02;100889.47;;;7.23;92.54
82474;BME280;72350;53.232;6.556;2023-12-20T09:27:30;100885.66;;;7.34;91.34
82474;BME280;72350;53.232;6.556;2023-12-20T09:29:58;100900.44;;;7.23;90.86
82474;BME280;72350;53.232;6.556;2023-12-20T09:32:26;100905.34;;;7.38;90.89
82474;BME280;72350;53.232;6.556;2023-12-20T09:34:55;100894.53;;;7.36;90.53
82474;BME280;72350;53.232;6.556;2023-12-20T09:37:26;100906.28;;;7.29;90.17
82474;BME280;72350;53.232;6.556;2023-12-20T09:39:54;100903.88;;;7.26;87.80
82474;BME280;72350;53.232;6.556;2023-12-20T09:42:28;100912.34;;;7.32;89.52
82474;BME280;72350;53.232;6.556;2023-12-20T09:44:59;100920.09;;;7.37;87.35
82474;BME280;72350;53.232;6.556;2023-12-20T09:47:29;100927.88;;;7.50;88.89
82474;BME280;72350;53.232;6.556;2023-12-20T09:49:59;100929.38;;;7.44;86.18
82474;BME280;72350;53.232;6.556;2023-12-20T09:52:27;100902.84;;;7.44;86.02
82474;BME280;72350;53.232;6.556;2023-12-20T09:54:56;100905.22;;;7.39;85.81
82474;BME280;72350;53.232;6.556;2023-12-20T09:57:25;100905.03;;;7.41;85.07
82474;BME280;72350;53.232;6.556;2023-12-20T09:59:52;100902.69;;;7.46;84.58
82474;BME280;72350;53.232;6.556;2023-12-20T10:02:24;100904.94;;;7.51;85.08
82474;BME280;72350;53.232;6.556;2023-12-20T10:04:54;100919.22;;;7.62;85.67
82474;BME280;72350;53.232;6.556;2023-12-20T10:07:23;100910.66;;;7.83;85.19
82474;BME280;72350;53.232;6.556;2023-12-20T10:09:54;100935.97;;;7.77;84.23
82474;BME280;72350;53.232;6.556;2023-12-20T10:12:22;100921.81;;;7.90;84.41
82474;BME280;72350;53.232;6.556;2023-12-20T10:14:50;100929.25;;;7.98;83.66
82474;BME280;72350;53.232;6.556;2023-12-20T10:17:18;100925.69;;;8.05;83.86
82474;BME280;72350;53.232;6.556;2023-12-20T10:19:46;100922.25;;;8.03;83.30
82474;BME280;72350;53.232;6.556;2023-12-20T10:22:15;100917.41;;;7.97;83.18
82474;BME280;72350;53.232;6.556;2023-12-20T10:24:45;100917.88;;;8.19;83.75
82474;BME280;72350;53.232;6.556;2023-12-20T10:27:13;100901.41;;;8.19;82.73
82474;BME280;72350;53.232;6.556;2023-12-20T10:29:41;100905.88;;;8.20;82.78
82474;BME280;72350;53.232;6.556;2023-12-20T10:32:23;100908.13;;;8.24;83.68
82474;BME280;72350;53.232;6.556;2023-12-20T10:34:51;100895.25;;;8.25;82.41
82474;BME280;72350;53.232;6.556;2023-12-20T10:37:19;100891.94;;;8.39;84.77
82474;BME280;72350;53.232;6.556;2023-12-20T10:39:50;100897.16;;;8.32;81.74
82474;BME280;72350;53.232;6.556;2023-12-20T10:42:20;100891.47;;;8.52;83.68
82474;BME280;72350;53.232;6.556;2023-12-20T10:44:49;100886.81;;;8.44;82.06
82474;BME280;72350;53.232;6.556;2023-12-20T10:47:17;100889.88;;;8.41;81.16
82474;BME280;72350;53.232;6.556;2023-12-20T10:49:46;100882.66;;;8.40;81.94
82474;BME280;72350;53.232;6.556;2023-12-20T10:52:15;100878.91;;;8.41;82.46
82474;BME280;72350;53.232;6.556;2023-12-20T10:54:44;100886.16;;;8.24;81.35
82474;BME280;72350;53.232;6.556;2023-12-20T10:57:16;100878.84;;;8.33;81.11
82474;BME280;72350;53.232;6.556;2023-12-20T10:59:45;100877.09;;;8.24;81.86
82474;BME280;72350;53.232;6.556;2023-12-20T11:02:17;100879.00;;;8.31;81.03
82474;BME280;72350;53.232;6.556;2023-12-20T11:04:51;100889.47;;;8.28;81.10
82474;BME280;72350;53.232;6.556;2023-12-20T11:07:25;100881.72;;;8.23;80.29
82474;BME280;72350;53.232;6.556;2023-12-20T11:09:59;100884.28;;;8.25;80.08
82474;BME280;72350;53.232;6.556;2023-12-20T11:12:35;100886.00;;;8.26;79.98
82474;BME280;72350;53.232;6.556;2023-12-20T11:15:05;100879.31;;;8.20;79.55
82474;BME280;72350;53.232;6.556;2023-12-20T11:17:34;100884.44;;;8.15;79.33
82474;BME280;72350;53.232;6.556;2023-12-20T11:20:07;100866.81;;;8.26;80.80
82474;BME280;72350;53.232;6.556;2023-12-20T11:22:37;100866.94;;;8.16;79.22
82474;BME280;72350;53.232;6.556;2023-12-20T11:25:10;100864.22;;;8.24;80.48
82474;BME280;72350;53.232;6.556;2023-12-20T11:27:42;100858.72;;;8.24;79.01
82474;BME280;72350;53.232;6.556;2023-12-20T11:30:14;100864.41;;;8.23;79.62
82474;BME280;72350;53.232;6.556;2023-12-20T11:32:41;100861.50;;;8.32;80.86
82474;BME280;72350;53.232;6.556;2023-12-20T11:35:19;100857.03;;;8.31;79.13
82474;BME280;72350;53.232;6.556;2023-12-20T11:37:48;100857.25;;;8.38;79.29
82474;BME280;72350;53.232;6.556;2023-12-20T11:40:17;100863.38;;;8.32;78.49
82474;BME280;72350;53.232;6.556;2023-12-20T11:42:49;100862.03;;;8.36;78.67
82474;BME280;72350;53.232;6.556;2023-12-20T11:45:18;100852.06;;;8.35;79.20
82474;BME280;72350;53.232;6.556;2023-12-20T11:47:50;100856.00;;;8.32;78.75
82474;BME280;72350;53.232;6.556;2023-12-20T11:50:19;100850.38;;;8.34;78.30
82474;BME280;72350;53.232;6.556;2023-12-20T11:52:48;100847.28;;;8.37;78.42
82474;BME280;72350;53.232;6.556;2023-12-20T11:55:16;100848.03;;;8.39;79.28
82474;BME280;72350;53.232;6.556;2023-12-20T11:57:46;100853.97;;;8.35;78.97
82474;BME280;72350;53.232;6.556;2023-12-20T12:00:15;100853.81;;;8.36;79.02
82474;BME280;72350;53.232;6.556;2023-12-20T12:02:43;100838.03;;;8.38;79.50
82474;BME280;72350;53.232;6.556;2023-12-20T12:05:22;100839.06;;;8.37;80.75
82474;BME280;72350;53.232;6.556;2023-12-20T12:07:51;100829.75;;;8.22;80.05
82474;BME280;72350;53.232;6.556;2023-12-20T12:10:20;100827.69;;;8.24;80.49
82474;BME280;72350;53.232;6.556;2023-12-20T12:12:49;100815.03;;;8.31;80.90
82474;BME280;72350;53.232;6.556;2023-12-20T12:15:17;100811.91;;;8.18;79.60
82474;BME280;72350;53.232;6.556;2023-12-20T12:17:52;100813.47;;;8.28;80.58
82474;BME280;72350;53.232;6.556;2023-12-20T12:20:21;100814.34;;;8.29;80.07
82474;BME280;72350;53.232;6.556;2023-12-20T12:22:57;100812.63;;;8.28;79.65
82474;BME280;72350;53.232;6.556;2023-12-20T12:25:25;100805.75;;;8.24;80.00
82474;BME280;72350;53.232;6.556;2023-12-20T12:27:55;100817.94;;;8.29;79.79
82474;BME280;72350;53.232;6.556;2023-12-20T12:30:23;100823.06;;;8.24;81.19
82474;BME280;72350;53.232;6.556;2023-12-20T12:32:56;100825.78;;;8.16;80.29
82474;BME280;72350;53.232;6.556;2023-12-20T12:35:24;100807.97;;;8.20;80.78
82474;BME280;72350;53.232;6.556;2023-12-20T12:37:52;100813.59;;;8.10;80.59
82474;BME280;72350;53.232;6.556;2023-12-20T12:40:20;100811.00;;;8.09;79.95
82474;BME280;72350;53.232;6.556;2023-12-20T12:42:48;100815.13;;;8.05;79.86
82474;BME280;72350;53.232;6.556;2023-12-20T12:45:17;100806.78;;;8.23;80.91
82474;BME280;72350;53.232;6.556;2023-12-20T12:47:45;100809.53;;;8.23;80.05
82474;BME280;72350;53.232;6.556;2023-12-20T12:50:14;100801.47;;;8.29;79.86
82474;BME280;72350;53.232;6.556;2023-12-20T12:52:42;100799.06;;;8.26;79.60
82474;BME280;72350;53.232;6.556;2023-12-20T12:55:10;100803.84;;;8.24;78.26
82474;BME280;72350;53.232;6.556;2023-12-20T12:57:38;100803.22;;;8.30;77.78
82474;BME280;72350;53.232;6.556;2023-12-20T13:00:07;100801.47;;;8.29;79.17
82474;BME280;72350;53.232;6.556;2023-12-20T13:02:37;100804.22;;;8.29;78.51
82474;BME280;72350;53.232;6.556;2023-12-20T13:05:08;100803.19;;;8.22;77.93
82474;BME280;72350;53.232;6.556;2023-12-20T13:07:36;100795.81;;;8.23;78.04